University Park Airport
KUNV : now visible

Airfield :











YOU CAN JOIN US ON...

 
LOGIN :

Register | Disclaimer

   EN    FR    IT 

 









Legend :    VFR   Marginal VFR   IFR   Intensive IFR   Very Intensive IFR
Visi :
Ceiling :
>= 8 km
>= 3000ft
5 to 8 km
1000 to 3000 ft
1500m to 5 km
500 to 1000 ft
800 to 1500m
200 to 500 ft
< 800m
< 200 ft
Symbols :   Thunderstorms  Fog  Heavy snow  Heavy precipitations  Wind > 20 kt







- Airport Elevation : 1239 ft


KUNV - University Park

CURRENT METAR :
  • 171053Z 04006KT 10SM FEW090 14/13 A3016

EXPIRED METARs :
  • 170953Z 22003KT 10SM SCT090 14/14 A3014
  • 170936Z AUTO 03005KT 10SM SCT090 SCT110 14/14 A3014 RMK AO2 T01440141
  • 170918Z AUTO 03006KT 10SM SCT090 15/14 A3013 RMK AO2 T01460143
  • 170855Z AUTO 04005KT 10SM CLR 15/14 A3013 RMK AO2 T01480144
  • 170836Z AUTO 02007KT 10SM CLR 15/15 A3012 RMK AO2 T01530148
  • 170816Z AUTO 03006KT 10SM CLR 16/15 A3013 RMK AO2 T01560153

TAF KUNV
Valid from the 17 at 10:00 until the 18 at 06:00 UTC


170954Z 1710/1806 03005KT P6SM BKN090
FM171300 06005KT P6SM BKN040
No reported NOTAMs for that airfield.



MET'MAP, your aeronautical weather chart ! - Copyright ORBIFLY December 2007 - Disclaimer

ORBIFLY MET'MAP TEAM :

Programming & Development : Alexandra Zaïnal
Concept & Development : Baudouin d'Aumeries
Co-Development & Prog : Marc-Olivier Méhu
Technical & hardware support : Manuel Goepfert

Contact : metmap@orbifly.com




SOURCES & CREDITS :

   NOAA       Earth
Advisory